Share

Beijing, Beijing

10:11 PM CST on April 23, 2014 (GMT +0800)
Beijing Capital (ZBAA) Elev 115 ft | 40.07 °N, 116.59 °E | Change Station

Current weather conditions updated 11 minutes ago

Clear
Clear
66 °F
Feels Like 66 °F
N
7
Wind Variable Wind from SSE
Sunrise 5:24 AM
Sunset 6:59 PM
Moon Waning Crescent

Tomorrow is forecast to be Warmer than today.

Pressure 29.86 in
Visibility -9999.0 miles
Clouds
Dew Point 48 °F
Humidity 52%
Rainfall 0.00 in
Snow Depth Not available.
UV Not available.
Pollen Not available.
Air Quality Not available.
Flu Activity Not available.
METAR ZBAA 231400Z 15003MPS 120V180 CAVOK 19/09 Q1011 NOSIG

More Conditions Fewer Conditions

Pressure 29.86 in
Visibility -9999.0 miles
Clouds
Dew Point 48 °F
Humidity 52%
Rainfall 0.00 in
Snow Depth Not available.
UV Not available.
Pollen Not available.
Air Quality Not available.
Flu Activity Not available.
METAR ZBAA 231400Z 15003MPS 120V180 CAVOK 19/09 Q1011 NOSIG

More Conditions Fewer Conditions

10-Day Weather Forecast

Almanac

Astronomy

Apr. 23, 2014 Rise Set
Actual Time 5:24 AM CST 6:59 PM CST
Civil Twilight 4:56 AM CST 7:28 PM CST
Nautical Twilight 4:21 AM CST 8:03 PM CST
Astronomical Twilight 3:45 AM CST 8:40 PM CST
Moon 1:32 AM CST 12:29 PM CST
Length of Visible Light 14h 32m
Length of Day
13h 34m
Tomorrow will be 2m 25s longer.
Waning Crescent, 36% of the Moon is Illuminated
Today
Waning Crescent
Apr 29
New
May 6
First Quarter
May 14
Full
May 21
Last Quarter

Yesterday's Extremes

Country Highs Country Lows

Community

  • spring flowers
    spring flowers
  • Earth Day Spectrum Ove' Blue
    Earth Day Spectrum Ove' Blue
  • BARN B&W
    BARN B&W
  • April Sunset
    April Sunset
  • Waiting..
    Waiting..

WunderPhotos

Upload Photos

1,704,294 photos uploaded!

Nearby

Snow Depth

Not available.

Coastal Water Temperatures

Place Temperature
No Stations Reporting

Earthquake Activity

City Distance Mag. Time & Date
No recent earthquake activity has been reported nearby.
Minimum magnitude displayed is 2.5.

Nearby Weather Stations

There are no personal weather stations in this area.

What do you think?

We're not finished. Please let us know what you like, what you don't like, and what you are still missing.